createdAt,value
2017-12-04T00:00:50.250Z,87.17
2017-12-04T00:03:17.690Z,87.27
2017-12-04T00:05:45.184Z,87.26
2017-12-04T00:08:12.713Z,87.10
2017-12-04T00:10:40.163Z,86.92
2017-12-04T00:13:07.729Z,86.99
2017-12-04T00:15:35.165Z,86.41
2017-12-04T00:18:02.639Z,86.68
2017-12-04T00:20:30.086Z,87.14
2017-12-04T00:22:57.545Z,86.38
2017-12-04T00:25:24.984Z,86.01
2017-12-04T00:27:52.460Z,86.53
2017-12-04T00:30:19.902Z,86.09
2017-12-04T00:32:47.375Z,86.73
2017-12-04T00:35:14.838Z,86.90
2017-12-04T00:37:42.290Z,86.74
2017-12-04T00:40:09.758Z,86.85
2017-12-04T00:42:37.265Z,87.29
2017-12-04T00:45:04.780Z,87.64
2017-12-04T00:47:32.229Z,87.24
2017-12-04T00:50:00.548Z,87.36
2017-12-04T00:52:27.996Z,87.10
2017-12-04T00:54:55.464Z,87.14
2017-12-04T00:57:22.987Z,87.54
2017-12-04T00:59:50.458Z,87.89
2017-12-04T01:02:17.947Z,87.77
2017-12-04T01:04:45.436Z,87.37
2017-12-04T01:07:12.877Z,87.83
2017-12-04T01:09:40.329Z,87.93
2017-12-04T01:12:07.767Z,87.67
2017-12-04T01:14:35.230Z,86.84
2017-12-04T01:17:02.688Z,86.99
2017-12-04T01:19:30.192Z,87.07
2017-12-04T01:21:57.630Z,87.20
2017-12-04T01:24:25.086Z,87.84
2017-12-04T01:26:52.539Z,88.03
2017-12-04T01:29:19.984Z,88.05
2017-12-04T01:31:47.474Z,88.33
2017-12-04T01:34:15.053Z,88.35
2017-12-04T01:36:42.518Z,88.02
2017-12-04T01:39:10.126Z,87.93
2017-12-04T01:41:37.593Z,87.70
2017-12-04T01:44:05.038Z,87.80
2017-12-04T01:46:32.509Z,87.93
2017-12-04T01:48:59.965Z,87.90
2017-12-04T01:51:27.556Z,87.34
2017-12-04T01:53:55.022Z,87.58
2017-12-04T01:56:22.565Z,87.50
2017-12-04T01:58:50.134Z,87.97
2017-12-04T02:01:17.681Z,88.05
2017-12-04T02:03:45.146Z,87.92
2017-12-04T02:06:12.631Z,87.00
2017-12-04T02:08:40.101Z,86.85
2017-12-04T02:11:07.651Z,87.17
2017-12-04T02:13:35.157Z,87.24
2017-12-04T02:16:02.644Z,87.17
2017-12-04T02:18:30.137Z,87.17
2017-12-04T02:20:57.602Z,86.78
2017-12-04T02:23:25.098Z,87.24
2017-12-04T02:25:52.551Z,87.38
2017-12-04T02:28:20.103Z,87.45
2017-12-04T02:30:47.564Z,86.69
2017-12-04T02:33:15.057Z,87.25
2017-12-04T02:35:42.529Z,87.73
2017-12-04T02:38:10.042Z,87.82
2017-12-04T02:40:37.499Z,87.42
2017-12-04T02:43:04.975Z,87.65
2017-12-04T02:45:32.427Z,87.90
2017-12-04T02:47:59.917Z,88.06
2017-12-04T02:50:27.370Z,87.94
2017-12-04T02:52:54.871Z,87.60
2017-12-04T02:55:22.351Z,87.97
2017-12-04T02:57:49.809Z,87.99
2017-12-04T03:00:17.357Z,88.05
2017-12-04T03:02:44.815Z,87.28
2017-12-04T03:05:12.312Z,87.45
2017-12-04T03:07:39.783Z,87.89
2017-12-04T03:10:07.325Z,87.99
2017-12-04T03:12:34.811Z,88.12
2017-12-04T03:15:02.312Z,88.35
2017-12-04T03:17:29.783Z,88.03
2017-12-04T03:19:57.260Z,88.12
2017-12-04T03:22:24.721Z,87.78
2017-12-04T03:24:52.332Z,87.67
2017-12-04T03:27:19.791Z,88.04
2017-12-04T03:29:47.248Z,87.62
2017-12-04T03:32:14.817Z,87.74
2017-12-04T03:34:42.267Z,87.07
2017-12-04T03:37:09.739Z,87.38
2017-12-04T03:39:37.323Z,88.09
2017-12-04T03:42:04.780Z,87.39
2017-12-04T03:44:32.241Z,87.76
2017-12-04T03:46:59.721Z,88.34
2017-12-04T03:49:27.205Z,87.82
2017-12-04T03:51:54.694Z,88.10
2017-12-04T03:54:22.149Z,88.03
2017-12-04T03:56:49.680Z,88.57
2017-12-04T03:59:17.141Z,87.99
2017-12-04T04:01:44.622Z,87.66
2017-12-04T04:04:12.071Z,87.47
2017-12-04T04:06:39.602Z,87.25
2017-12-04T04:09:07.197Z,87.95
2017-12-04T04:11:34.686Z,87.60
2017-12-04T04:14:02.177Z,87.96
2017-12-04T04:16:29.729Z,87.93
2017-12-04T04:18:57.293Z,87.78
2017-12-04T04:21:24.857Z,87.96
2017-12-04T04:23:52.349Z,87.78
2017-12-04T04:26:19.808Z,87.77
2017-12-04T04:28:47.276Z,88.10
2017-12-04T04:31:14.732Z,88.19
2017-12-04T04:33:42.220Z,87.79
2017-12-04T04:36:09.773Z,88.02
2017-12-04T04:38:37.299Z,87.59
2017-12-04T04:41:04.757Z,87.06
2017-12-04T04:43:32.247Z,87.41
2017-12-04T04:45:59.707Z,87.95
2017-12-04T04:48:27.276Z,87.79
2017-12-04T04:50:54.733Z,87.14
2017-12-04T04:53:22.207Z,87.53
2017-12-04T04:55:49.662Z,87.78
2017-12-04T04:58:17.214Z,88.27
2017-12-04T05:00:44.765Z,88.61
2017-12-04T05:03:12.258Z,88.32
2017-12-04T05:05:40.077Z,88.31
2017-12-04T05:08:07.559Z,87.97
2017-12-04T05:10:35.119Z,88.27
2017-12-04T05:13:02.674Z,88.30
2017-12-04T05:15:30.162Z,88.00
2017-12-04T05:17:57.637Z,87.90
2017-12-04T05:20:25.121Z,87.65
2017-12-04T05:22:52.604Z,87.20
2017-12-04T05:25:20.091Z,87.81
2017-12-04T05:27:47.563Z,88.18
2017-12-04T05:30:15.071Z,88.57
2017-12-04T05:32:42.528Z,88.37
2017-12-04T05:35:10.021Z,88.77
2017-12-04T05:37:37.488Z,88.49
2017-12-04T05:40:04.981Z,87.60
2017-12-04T05:42:32.543Z,87.95
2017-12-04T05:45:00.007Z,88.25
2017-12-04T05:47:27.469Z,87.59
2017-12-04T05:49:55.029Z,88.42
2017-12-04T05:52:22.531Z,87.96
2017-12-04T05:54:49.992Z,88.00
2017-12-04T05:57:17.477Z,88.37
2017-12-04T05:59:44.946Z,88.60
2017-12-04T06:02:12.428Z,88.35
2017-12-04T06:04:39.879Z,89.21
2017-12-04T06:07:07.369Z,88.96
2017-12-04T06:09:34.833Z,89.16
2017-12-04T06:12:02.322Z,88.86
2017-12-04T06:14:29.893Z,88.87
2017-12-04T06:16:57.374Z,88.45
2017-12-04T06:19:24.834Z,88.95
2017-12-04T06:21:52.317Z,88.82
2017-12-04T06:24:19.831Z,88.77
2017-12-04T06:26:47.327Z,88.68
2017-12-04T06:29:14.797Z,88.84
2017-12-04T06:31:42.277Z,88.10
2017-12-04T06:34:09.744Z,88.64
2017-12-04T06:36:37.252Z,88.82
2017-12-04T06:39:04.777Z,88.77
2017-12-04T06:41:32.226Z,89.57
2017-12-04T06:43:59.721Z,89.22
2017-12-04T06:46:27.242Z,89.43
2017-12-04T06:48:54.681Z,89.41
2017-12-04T06:51:22.138Z,89.37
2017-12-04T06:53:49.712Z,89.33
2017-12-04T06:56:17.188Z,89.25
2017-12-04T06:58:44.779Z,89.08
2017-12-04T07:01:12.240Z,89.67
2017-12-04T07:03:39.718Z,90.37
2017-12-04T07:06:07.190Z,90.18
2017-12-04T07:08:34.663Z,90.67
2017-12-04T07:11:02.110Z,90.34
2017-12-04T07:13:29.592Z,89.67
2017-12-04T07:15:57.149Z,89.42
2017-12-04T07:18:24.681Z,90.25
2017-12-04T07:20:52.153Z,89.90
2017-12-04T07:23:19.685Z,89.84
2017-12-04T07:25:47.152Z,90.23
2017-12-04T07:28:14.728Z,89.61
2017-12-04T07:30:42.206Z,89.08
2017-12-04T07:33:09.710Z,89.29
2017-12-04T07:35:37.153Z,89.79
2017-12-04T07:38:04.627Z,89.69
2017-12-04T07:40:32.107Z,89.06
2017-12-04T07:42:59.569Z,89.51
2017-12-04T07:45:27.057Z,90.15
2017-12-04T07:47:54.520Z,89.79
2017-12-04T07:50:22.009Z,90.16
2017-12-04T07:52:49.465Z,89.78
2017-12-04T07:55:17.007Z,88.95
2017-12-04T07:57:44.473Z,88.21
2017-12-04T08:00:11.965Z,88.03
2017-12-04T08:02:39.422Z,88.64
2017-12-04T08:05:06.914Z,89.71
2017-12-04T08:07:34.403Z,88.87
2017-12-04T08:10:01.885Z,89.39
2017-12-04T08:12:29.365Z,89.04
2017-12-04T08:14:56.843Z,89.99
2017-12-04T08:17:24.310Z,89.64
2017-12-04T08:19:51.792Z,89.61
2017-12-04T08:22:19.268Z,89.41
2017-12-04T08:24:46.768Z,89.26
2017-12-04T08:27:14.228Z,89.38
2017-12-04T08:29:41.891Z,89.43
2017-12-04T08:32:09.354Z,88.55
2017-12-04T08:34:36.845Z,89.07
2017-12-04T08:37:04.316Z,88.69
2017-12-04T08:39:31.937Z,88.85
2017-12-04T08:41:59.407Z,89.15
2017-12-04T08:44:26.881Z,88.51
2017-12-04T08:46:54.448Z,88.62
2017-12-04T08:49:22.017Z,89.02
2017-12-04T08:51:49.493Z,89.12
2017-12-04T08:54:17.015Z,89.12
2017-12-04T08:56:44.590Z,89.22
2017-12-04T08:59:12.041Z,89.54
2017-12-04T09:01:39.573Z,89.25
2017-12-04T09:04:07.056Z,89.25
2017-12-04T09:06:34.613Z,88.58
2017-12-04T09:09:02.067Z,88.50
2017-12-04T09:11:29.557Z,88.75
2017-12-04T09:13:57.037Z,87.95
2017-12-04T09:16:24.495Z,88.05
2017-12-04T09:18:51.997Z,87.98
2017-12-04T09:21:19.457Z,88.61
2017-12-04T09:23:46.957Z,88.25
2017-12-04T09:26:14.420Z,88.49
2017-12-04T09:28:41.923Z,87.54
2017-12-04T09:31:09.390Z,87.76
2017-12-04T09:33:36.869Z,88.71
2017-12-04T09:36:04.401Z,88.96
2017-12-04T09:38:31.887Z,88.88
2017-12-04T09:40:59.430Z,88.59
2017-12-04T09:43:26.910Z,88.78
2017-12-04T09:45:54.405Z,89.05
2017-12-04T09:48:21.989Z,88.88
2017-12-04T09:50:49.549Z,88.52
2017-12-04T09:53:17.019Z,88.86
2017-12-04T09:55:44.565Z,88.89
2017-12-04T09:58:12.041Z,89.34
2017-12-04T10:00:39.519Z,88.78
2017-12-04T10:03:07.034Z,88.62
2017-12-04T10:05:34.500Z,88.14
2017-12-04T10:08:01.956Z,88.63
2017-12-04T10:10:29.444Z,87.56
2017-12-04T10:12:56.900Z,87.82
2017-12-04T10:15:24.389Z,87.55
2017-12-04T10:17:51.860Z,87.52
2017-12-04T10:20:19.337Z,89.05
2017-12-04T10:22:46.815Z,88.99
2017-12-04T10:25:14.357Z,88.01
2017-12-04T10:27:41.813Z,87.45
2017-12-04T10:30:09.301Z,87.64
2017-12-04T10:32:36.761Z,87.33
2017-12-04T10:35:04.237Z,86.37
2017-12-04T10:37:31.675Z,86.64
2017-12-04T10:39:59.228Z,86.16
2017-12-04T10:42:26.762Z,86.47
2017-12-04T10:44:54.221Z,86.19
2017-12-04T10:47:21.706Z,85.73
2017-12-04T10:49:49.147Z,86.50
2017-12-04T10:52:16.626Z,86.03
2017-12-04T10:54:44.128Z,85.93
2017-12-04T10:57:11.621Z,86.12
2017-12-04T10:59:39.113Z,85.99
2017-12-04T11:02:06.590Z,86.10
2017-12-04T11:04:34.031Z,85.76
2017-12-04T11:07:01.501Z,85.54
2017-12-04T11:09:28.958Z,86.15
2017-12-04T11:11:56.436Z,85.23
2017-12-04T11:14:23.995Z,85.80
2017-12-04T11:16:51.489Z,85.62
2017-12-04T11:19:18.951Z,85.64
2017-12-04T11:21:46.466Z,85.37
2017-12-04T11:24:13.997Z,85.70
2017-12-04T11:26:41.439Z,85.53
2017-12-04T11:29:08.909Z,85.28
2017-12-04T11:31:36.381Z,85.81
2017-12-04T11:34:03.857Z,85.57
2017-12-04T11:36:31.322Z,86.05
2017-12-04T11:38:58.808Z,86.08
2017-12-04T11:41:26.265Z,85.04
2017-12-04T11:43:53.761Z,85.67
2017-12-04T11:46:21.209Z,85.99
2017-12-04T11:48:48.691Z,85.79
2017-12-04T11:51:16.242Z,86.32
2017-12-04T11:53:43.793Z,86.25
2017-12-04T11:56:11.287Z,86.21
2017-12-04T11:58:38.821Z,86.36
2017-12-04T12:01:06.381Z,86.32
2017-12-04T12:03:33.831Z,85.33
2017-12-04T12:06:01.321Z,85.67
2017-12-04T12:08:28.778Z,86.41
2017-12-04T12:10:56.258Z,85.70
2017-12-04T12:13:23.702Z,86.09
2017-12-04T12:15:51.217Z,85.94
2017-12-04T12:18:18.687Z,85.92
2017-12-04T12:20:46.161Z,86.12
2017-12-04T12:23:13.664Z,85.76
2017-12-04T12:25:41.235Z,85.94
2017-12-04T12:28:08.709Z,86.38
2017-12-04T12:30:37.103Z,86.55
2017-12-04T12:33:04.553Z,86.82
2017-12-04T12:35:32.089Z,86.16
2017-12-04T12:37:59.599Z,86.98
2017-12-04T12:40:27.056Z,86.62
2017-12-04T12:42:54.575Z,86.22
2017-12-04T12:45:22.028Z,87.04
2017-12-04T12:47:49.592Z,86.62
2017-12-04T12:50:17.054Z,85.97
2017-12-04T12:52:47.775Z,86.27
2017-12-04T12:55:15.254Z,86.37
2017-12-04T12:57:42.816Z,86.37
2017-12-04T13:00:11.082Z,86.48
2017-12-04T13:02:38.633Z,86.37
2017-12-04T13:05:06.189Z,86.58
2017-12-04T13:07:33.678Z,86.44
2017-12-04T13:10:01.154Z,86.32
2017-12-04T13:12:28.670Z,86.73
2017-12-04T13:14:59.069Z,86.87
2017-12-04T13:17:26.540Z,85.94
2017-12-04T13:19:54.026Z,85.74
2017-12-04T13:22:22.271Z,86.77
2017-12-04T13:24:49.824Z,86.40
2017-12-04T13:27:17.290Z,87.19
2017-12-04T13:29:44.771Z,87.12
2017-12-04T13:35:25.077Z,86.22
2017-12-04T13:37:52.562Z,86.92
2017-12-04T13:46:05.674Z,85.88
2017-12-04T13:48:33.151Z,86.29
2017-12-04T13:51:00.624Z,86.33
2017-12-04T13:53:28.077Z,86.86
2017-12-04T13:55:55.570Z,86.18
2017-12-04T13:58:23.025Z,86.88
2017-12-04T14:00:50.845Z,87.55
2017-12-04T14:03:18.766Z,86.55
2017-12-04T14:05:46.211Z,87.01
2017-12-04T14:08:13.689Z,86.41
2017-12-04T14:10:41.154Z,85.26
2017-12-04T14:13:08.633Z,85.81
2017-12-04T14:15:36.078Z,85.71
2017-12-04T14:18:03.555Z,85.89
2017-12-04T14:20:31.017Z,85.86
2017-12-04T14:22:58.483Z,86.19
2017-12-04T14:25:25.942Z,85.82
2017-12-04T14:27:53.417Z,86.25
2017-12-04T14:30:21.000Z,85.10
2017-12-04T14:32:48.629Z,85.63
2017-12-04T14:35:16.188Z,86.16
2017-12-04T14:37:43.804Z,85.50
2017-12-04T14:40:11.721Z,84.93
2017-12-04T14:42:39.303Z,85.30
2017-12-04T14:45:06.762Z,85.14
2017-12-04T14:47:34.219Z,85.52
2017-12-04T14:50:01.683Z,85.63
2017-12-04T14:52:29.142Z,86.12
2017-12-04T14:54:56.622Z,85.50
2017-12-04T14:57:24.085Z,85.60
2017-12-04T14:59:51.555Z,85.99
2017-12-04T15:02:19.016Z,85.82
2017-12-04T15:04:46.498Z,86.16
2017-12-04T15:07:13.955Z,85.69
2017-12-04T15:09:43.657Z,85.11
2017-12-04T15:12:11.117Z,85.56
2017-12-04T15:14:38.759Z,85.47
2017-12-04T15:17:06.212Z,86.02
2017-12-04T15:19:37.284Z,85.57
2017-12-04T15:22:07.113Z,85.14
2017-12-04T15:24:36.644Z,85.50
2017-12-04T15:27:04.201Z,85.71
2017-12-04T15:29:31.670Z,86.03
2017-12-04T15:31:59.412Z,85.92
2017-12-04T15:34:26.886Z,86.18
2017-12-04T15:36:54.378Z,86.97
2017-12-04T15:39:21.845Z,85.99
2017-12-04T15:41:49.328Z,86.24
2017-12-04T15:44:16.786Z,86.03
2017-12-04T15:46:44.273Z,85.52
2017-12-04T15:49:11.745Z,85.81
2017-12-04T15:51:39.222Z,86.11
2017-12-04T15:54:06.683Z,85.62
2017-12-04T15:56:35.050Z,86.10
2017-12-04T15:59:06.105Z,85.38
2017-12-04T16:01:33.958Z,85.78
2017-12-04T16:04:02.084Z,85.12
2017-12-04T16:06:29.575Z,85.94
2017-12-04T16:08:57.018Z,86.06
2017-12-04T16:11:24.475Z,85.91
2017-12-04T16:13:51.967Z,86.06
2017-12-04T16:16:19.429Z,85.79
2017-12-04T16:18:46.925Z,85.21
2017-12-04T16:21:14.377Z,85.12
2017-12-04T16:23:41.897Z,86.04
2017-12-04T16:26:09.361Z,85.45
2017-12-04T16:28:37.362Z,85.47
2017-12-04T16:31:04.857Z,85.60
2017-12-04T16:33:32.333Z,85.75
2017-12-04T16:35:59.813Z,85.52
2017-12-04T16:38:27.936Z,85.91
2017-12-04T16:40:55.397Z,85.57
2017-12-04T16:43:22.853Z,86.50
2017-12-04T16:45:50.337Z,85.86
2017-12-04T16:48:17.797Z,85.65
2017-12-04T16:50:45.263Z,85.18
2017-12-04T16:53:12.717Z,86.15
2017-12-04T16:55:40.719Z,86.22
2017-12-04T16:58:08.149Z,86.77
2017-12-04T17:00:35.801Z,86.26
2017-12-04T17:03:03.288Z,86.36
2017-12-04T17:05:30.790Z,86.71
2017-12-04T17:07:58.251Z,86.12
2017-12-04T17:10:25.738Z,86.19
2017-12-04T17:12:53.205Z,85.75
2017-12-04T17:15:20.685Z,86.61
2017-12-04T17:17:48.158Z,86.51
2017-12-04T17:20:15.649Z,86.01
2017-12-04T17:22:43.103Z,86.32
2017-12-04T17:25:10.571Z,86.34
2017-12-04T17:27:38.029Z,86.83
2017-12-04T17:30:05.525Z,86.58
2017-12-04T17:32:33.049Z,86.79
2017-12-04T17:35:00.516Z,87.05
2017-12-04T17:37:27.997Z,87.04
2017-12-04T17:39:55.455Z,86.70
2017-12-04T17:42:22.931Z,86.07
2017-12-04T17:44:50.385Z,86.40
2017-12-04T17:47:17.990Z,85.80
2017-12-04T17:49:45.540Z,86.83
2017-12-04T17:52:13.027Z,86.23
2017-12-04T17:54:40.508Z,85.98
2017-12-04T17:57:08.005Z,86.19
2017-12-04T17:59:35.487Z,86.62
2017-12-04T18:02:02.974Z,86.78
2017-12-04T18:04:30.432Z,85.76
2017-12-04T18:06:57.933Z,86.24
2017-12-04T18:09:25.383Z,85.69
2017-12-04T18:11:52.852Z,86.01
2017-12-04T18:14:20.314Z,86.39
2017-12-04T18:16:47.802Z,86.31
2017-12-04T18:19:15.269Z,85.98
2017-12-04T18:21:42.764Z,85.98
2017-12-04T18:24:10.223Z,85.35
2017-12-04T18:26:37.676Z,85.97
2017-12-04T18:29:05.151Z,86.07
2017-12-04T18:31:32.638Z,85.94
2017-12-04T18:34:00.121Z,86.15
2017-12-04T18:36:27.632Z,85.91
2017-12-04T18:38:55.098Z,86.14
2017-12-04T18:41:22.557Z,86.67
2017-12-04T18:43:50.065Z,86.72
2017-12-04T18:46:17.515Z,86.98
2017-12-04T18:48:45.105Z,87.08
2017-12-04T18:51:12.573Z,87.17
2017-12-04T18:53:40.047Z,87.22
2017-12-04T18:56:07.525Z,86.99
2017-12-04T18:58:35.029Z,87.16
2017-12-04T19:01:02.509Z,86.84
2017-12-04T19:03:30.006Z,86.90
2017-12-04T19:05:57.479Z,87.14
2017-12-04T19:08:24.932Z,86.24
2017-12-04T19:10:52.421Z,86.86
2017-12-04T19:13:19.982Z,86.87
2017-12-04T19:15:48.321Z,86.71
2017-12-04T19:18:15.781Z,87.00
2017-12-04T19:20:43.281Z,87.12
2017-12-04T19:23:12.646Z,87.07
2017-12-04T19:25:40.552Z,87.13
2017-12-04T19:28:08.017Z,87.17
2017-12-04T19:30:35.501Z,87.17
2017-12-04T19:33:02.982Z,87.59
2017-12-04T19:35:30.465Z,88.28
2017-12-04T19:37:57.925Z,88.58
2017-12-04T19:40:25.389Z,88.22
2017-12-04T19:42:52.878Z,88.47
2017-12-04T19:45:20.341Z,88.37
2017-12-04T19:47:47.824Z,88.50
2017-12-04T19:50:15.294Z,88.51
2017-12-04T19:52:42.810Z,88.32
2017-12-04T19:55:10.267Z,89.24
2017-12-04T19:57:37.753Z,89.50
2017-12-04T20:00:05.213Z,89.41
2017-12-04T20:02:32.687Z,89.41
2017-12-04T20:05:00.242Z,88.69
2017-12-04T20:07:27.805Z,88.80
2017-12-04T20:09:55.270Z,88.53
2017-12-04T20:12:22.809Z,88.75
2017-12-04T20:14:50.297Z,88.54
2017-12-04T20:17:17.789Z,88.28
2017-12-04T20:19:45.257Z,87.84
2017-12-04T20:22:12.739Z,87.99
2017-12-04T20:24:40.296Z,88.46
2017-12-04T20:27:07.793Z,88.61
2017-12-04T20:29:35.276Z,88.49
2017-12-04T20:32:02.735Z,88.42
2017-12-04T20:34:30.214Z,88.15
2017-12-04T20:36:57.770Z,88.41
2017-12-04T20:39:25.280Z,88.53
2017-12-04T20:41:52.799Z,89.29
2017-12-04T20:44:20.288Z,89.74
2017-12-04T20:46:47.826Z,89.54
2017-12-04T20:49:15.313Z,89.28
2017-12-04T20:51:42.793Z,89.35
2017-12-04T20:54:10.282Z,88.89
2017-12-04T20:56:37.750Z,89.42
2017-12-04T20:59:05.213Z,89.42
2017-12-04T21:01:32.698Z,89.69
2017-12-04T21:04:00.191Z,89.82
2017-12-04T21:06:27.678Z,90.46
2017-12-04T21:09:07.149Z,89.74
2017-12-04T21:11:46.429Z,89.00
2017-12-04T21:14:25.852Z,88.49
2017-12-04T21:17:05.075Z,88.74
2017-12-04T21:19:32.557Z,88.98
2017-12-04T21:22:00.038Z,89.26
2017-12-04T21:24:27.513Z,88.86
2017-12-04T21:26:55.005Z,88.50
2017-12-04T21:29:22.473Z,88.45
2017-12-04T21:31:49.969Z,88.12
2017-12-04T21:34:17.437Z,88.06
2017-12-04T21:36:44.975Z,87.99
2017-12-04T21:39:12.442Z,87.72
2017-12-04T21:41:39.915Z,87.73
2017-12-04T21:44:07.377Z,87.63
2017-12-04T21:46:34.898Z,87.53
2017-12-04T21:49:02.373Z,87.49
2017-12-04T21:51:29.857Z,87.91
2017-12-04T21:53:57.325Z,87.76
2017-12-04T21:56:24.937Z,88.62
2017-12-04T21:58:52.414Z,88.21
2017-12-04T22:01:19.954Z,87.91
2017-12-04T22:03:47.663Z,87.54
2017-12-04T22:06:15.125Z,87.56
2017-12-04T22:08:42.610Z,87.61
2017-12-04T22:11:10.081Z,87.04
2017-12-04T22:13:37.555Z,87.78
2017-12-04T22:16:05.037Z,87.69
2017-12-04T22:18:32.520Z,87.09
2017-12-04T22:20:59.971Z,87.01
2017-12-04T22:23:27.443Z,86.83
2017-12-04T22:25:54.904Z,87.00
2017-12-04T22:28:22.389Z,87.17
2017-12-04T22:30:49.852Z,87.54
2017-12-04T22:33:17.386Z,87.25
2017-12-04T22:35:44.845Z,87.50
2017-12-04T22:38:12.333Z,87.47
2017-12-04T22:40:41.015Z,87.43
2017-12-04T22:43:08.481Z,87.89
2017-12-04T22:45:35.955Z,87.57
2017-12-04T22:48:03.408Z,87.76
2017-12-04T22:50:30.936Z,87.57
2017-12-04T22:52:58.411Z,87.71
2017-12-04T22:55:26.001Z,87.88
2017-12-04T22:57:53.462Z,87.63
2017-12-04T23:00:30.636Z,87.72
2017-12-04T23:02:58.893Z,87.50
2017-12-04T23:05:26.381Z,87.09
2017-12-04T23:07:53.849Z,87.43
2017-12-04T23:10:21.321Z,86.82
2017-12-04T23:12:48.802Z,87.08
2017-12-04T23:15:16.285Z,87.25
2017-12-04T23:17:43.741Z,86.82
2017-12-04T23:20:11.226Z,86.51
2017-12-04T23:22:38.693Z,86.31
2017-12-04T23:25:06.207Z,86.28
2017-12-04T23:27:33.676Z,86.77
2017-12-04T23:30:01.171Z,86.84
2017-12-04T23:32:28.678Z,86.84
2017-12-04T23:34:56.154Z,87.17
2017-12-04T23:37:23.633Z,87.31
2017-12-04T23:39:51.099Z,87.61
2017-12-04T23:42:18.593Z,87.25
2017-12-04T23:44:46.047Z,87.09
2017-12-04T23:47:13.544Z,87.32
2017-12-04T23:49:41.009Z,87.31
2017-12-04T23:52:08.508Z,87.20
2017-12-04T23:54:35.958Z,86.80
2017-12-04T23:57:03.445Z,87.23
2017-12-04T23:59:30.911Z,87.33
